createdAt,value
2024-04-08T00:00:54.314Z,58.93
2024-04-08T00:03:42.174Z,58.77
2024-04-08T00:06:12.819Z,58.34
2024-04-08T00:08:41.312Z,58.32
2024-04-08T00:11:09.281Z,58.01
2024-04-08T00:13:38.795Z,58.09
2024-04-08T00:16:07.188Z,58.24
2024-04-08T00:18:35.338Z,58.25
2024-04-08T00:21:04.169Z,58.36
2024-04-08T00:23:35.570Z,58.39
2024-04-08T00:26:04.345Z,58.61
2024-04-08T00:28:32.524Z,58.67
2024-04-08T00:31:10.018Z,58.77
2024-04-08T00:33:38.208Z,58.71
2024-04-08T00:36:06.482Z,59.05
2024-04-08T00:38:34.379Z,59.25
2024-04-08T00:41:03.929Z,59.32
2024-04-08T00:43:32.004Z,58.98
2024-04-08T00:45:59.980Z,59.38
2024-04-08T00:48:28.803Z,59.77
2024-04-08T00:50:56.979Z,60.38
2024-04-08T00:53:24.976Z,60.33
2024-04-08T00:55:53.183Z,59.83
2024-04-08T00:58:21.099Z,59.80
2024-04-08T01:00:49.135Z,59.97
2024-04-08T01:03:17.429Z,60.06
2024-04-08T01:05:49.039Z,61.00
2024-04-08T01:08:17.019Z,60.83
2024-04-08T01:10:44.966Z,61.02
2024-04-08T01:13:12.853Z,61.14
2024-04-08T01:15:40.831Z,60.87
2024-04-08T01:18:08.752Z,61.78
2024-04-08T01:20:38.042Z,62.98
2024-04-08T01:23:05.951Z,62.42
2024-04-08T01:25:33.821Z,61.94
2024-04-08T01:28:03.274Z,61.76
2024-04-08T01:30:31.293Z,61.52
2024-04-08T01:32:59.148Z,61.50
2024-04-08T01:35:27.090Z,63.11
2024-04-08T01:37:55.050Z,62.35
2024-04-08T01:40:23.016Z,62.63
2024-04-08T01:42:50.896Z,62.34
2024-04-08T01:45:18.790Z,62.19
2024-04-08T01:47:46.818Z,61.95
2024-04-08T01:50:14.862Z,62.03
2024-04-08T01:52:42.777Z,62.36
2024-04-08T01:55:10.713Z,62.19
2024-04-08T01:57:38.613Z,62.78
2024-04-08T02:00:08.925Z,63.04
2024-04-08T02:02:39.959Z,63.81
2024-04-08T02:05:07.912Z,64.21
2024-04-08T02:07:36.126Z,64.16
2024-04-08T02:10:04.125Z,64.08
2024-04-08T02:12:32.046Z,64.05
2024-04-08T02:14:59.941Z,64.27
2024-04-08T02:17:27.936Z,64.88
2024-04-08T02:19:55.997Z,65.00
2024-04-08T02:22:23.956Z,64.77
2024-04-08T02:24:51.931Z,65.08
2024-04-08T02:27:19.843Z,64.99
2024-04-08T02:29:47.820Z,65.90
2024-04-08T02:32:15.789Z,65.81
2024-04-08T02:34:43.739Z,67.10
2024-04-08T02:37:11.652Z,66.37
2024-04-08T02:39:39.688Z,66.10
2024-04-08T02:42:07.655Z,66.05
2024-04-08T02:44:35.733Z,66.06
2024-04-08T02:47:04.083Z,66.34
2024-04-08T02:49:33.944Z,66.35
2024-04-08T02:52:01.887Z,66.78
2024-04-08T02:54:29.827Z,66.27
2024-04-08T02:56:57.711Z,66.30
2024-04-08T02:59:26.408Z,66.48
2024-04-08T03:01:54.323Z,66.63
2024-04-08T03:04:22.317Z,66.29
2024-04-08T03:06:50.207Z,66.47
2024-04-08T03:09:18.845Z,66.24
2024-04-08T03:11:46.904Z,66.40
2024-04-08T03:14:14.964Z,66.46
2024-04-08T03:16:44.929Z,66.42
2024-04-08T03:19:12.853Z,66.90
2024-04-08T03:21:40.880Z,67.19
2024-04-08T03:24:08.808Z,67.10
2024-04-08T03:26:36.704Z,66.83
2024-04-08T03:29:04.621Z,66.45
2024-04-08T03:31:32.658Z,66.05
2024-04-08T03:34:00.597Z,65.75
2024-04-08T03:36:28.483Z,65.91
2024-04-08T03:38:56.500Z,66.33
2024-04-08T03:41:24.405Z,66.04
2024-04-08T03:43:52.314Z,66.21
2024-04-08T03:46:20.300Z,66.71
2024-04-08T03:48:48.202Z,66.39
2024-04-08T03:51:17.536Z,66.28
2024-04-08T03:53:46.980Z,66.45
2024-04-08T03:56:14.891Z,66.14
2024-04-08T03:58:42.883Z,66.28
2024-04-08T04:01:11.070Z,66.38
2024-04-08T04:03:39.139Z,66.09
2024-04-08T04:06:07.338Z,65.87
2024-04-08T04:08:36.952Z,65.91
2024-04-08T04:11:05.288Z,65.78
2024-04-08T04:13:33.253Z,66.03
2024-04-08T04:16:04.419Z,65.89
2024-04-08T04:18:33.192Z,66.13
2024-04-08T04:21:01.118Z,65.99
2024-04-08T04:23:29.032Z,66.21
2024-04-08T04:25:59.334Z,65.75
2024-04-08T04:28:28.225Z,66.13
2024-04-08T04:30:56.622Z,65.97
2024-04-08T04:33:24.541Z,65.93
2024-04-08T04:35:59.124Z,66.09
2024-04-08T04:38:27.348Z,66.07
2024-04-08T04:41:02.339Z,65.52
2024-04-08T04:43:30.716Z,65.09
2024-04-08T04:45:58.807Z,64.99
2024-04-08T04:48:26.892Z,65.28
2024-04-08T04:50:54.905Z,64.73
2024-04-08T04:53:22.972Z,64.23
2024-04-08T04:55:54.638Z,63.71
2024-04-08T04:58:22.700Z,63.09
2024-04-08T05:00:51.103Z,62.92
2024-04-08T05:03:20.126Z,62.95
2024-04-08T05:05:55.936Z,62.72
2024-04-08T05:08:24.577Z,62.46
2024-04-08T05:10:52.705Z,62.24
2024-04-08T05:13:21.172Z,61.85
2024-04-08T05:15:59.209Z,61.58
2024-04-08T05:18:27.448Z,61.32
2024-04-08T05:20:56.387Z,61.52
2024-04-08T05:23:24.538Z,61.48
2024-04-08T05:25:52.675Z,61.58
2024-04-08T05:28:21.529Z,61.36
2024-04-08T05:30:49.579Z,61.54
2024-04-08T05:33:17.743Z,61.13
2024-04-08T05:35:46.255Z,61.13
2024-04-08T05:38:14.956Z,60.90
2024-04-08T05:40:42.963Z,60.67
2024-04-08T05:43:20.049Z,60.56
2024-04-08T05:45:48.766Z,60.38
2024-04-08T05:48:16.662Z,60.23
2024-04-08T05:50:47.192Z,60.35
2024-04-08T05:53:15.429Z,60.20
2024-04-08T05:55:43.508Z,60.14
2024-04-08T05:58:11.608Z,60.11
2024-04-08T06:00:39.864Z,60.17
2024-04-08T06:03:07.977Z,59.84
2024-04-08T06:05:36.062Z,59.66
2024-04-08T06:08:04.363Z,59.46
2024-04-08T06:10:32.450Z,59.52
2024-04-08T06:13:01.020Z,59.48
2024-04-08T06:15:29.705Z,60.10
2024-04-08T06:17:58.015Z,59.90
2024-04-08T06:20:26.165Z,60.42
2024-04-08T06:22:54.166Z,60.25
2024-04-08T06:25:22.127Z,59.99
2024-04-08T06:27:50.210Z,59.88
2024-04-08T06:30:18.231Z,59.88
2024-04-08T06:32:50.264Z,59.59
2024-04-08T06:35:18.408Z,59.34
2024-04-08T06:37:46.601Z,59.09
2024-04-08T06:40:14.634Z,59.17
2024-04-08T06:42:42.638Z,59.17
2024-04-08T06:45:10.649Z,58.97
2024-04-08T06:47:38.909Z,58.64
2024-04-08T06:50:07.973Z,58.30
2024-04-08T06:52:35.947Z,58.60
2024-04-08T06:55:04.081Z,58.10
2024-04-08T06:57:32.100Z,58.08
2024-04-08T07:00:00.093Z,58.06
2024-04-08T07:02:28.300Z,57.51
2024-04-08T07:04:56.240Z,56.58
2024-04-08T07:07:24.194Z,56.67
2024-04-08T07:09:52.254Z,55.88
2024-04-08T07:12:20.510Z,55.79
2024-04-08T07:14:52.393Z,55.41
2024-04-08T07:17:22.982Z,55.21
2024-04-08T07:19:50.912Z,54.66
2024-04-08T07:22:20.326Z,54.43
2024-04-08T07:24:54.069Z,53.94
2024-04-08T07:27:24.567Z,53.46
2024-04-08T07:29:52.531Z,52.77
2024-04-08T07:32:20.825Z,52.72
2024-04-08T07:34:48.971Z,52.72
2024-04-08T07:37:16.998Z,52.76
2024-04-08T07:39:44.957Z,51.96
2024-04-08T07:42:13.673Z,52.25
2024-04-08T07:44:41.983Z,51.71
2024-04-08T07:47:10.307Z,52.07
2024-04-08T07:49:40.975Z,51.08
2024-04-08T07:52:10.580Z,51.26
2024-04-08T07:54:40.202Z,51.10
2024-04-08T07:57:10.325Z,49.39
2024-04-08T07:59:42.468Z,50.06
2024-04-08T08:02:13.136Z,50.53
2024-04-08T08:04:53.016Z,49.97
2024-04-08T08:07:21.420Z,49.55
2024-04-08T08:09:50.082Z,49.60
2024-04-08T08:12:23.775Z,48.95
2024-04-08T08:14:51.779Z,48.52
2024-04-08T08:17:19.786Z,48.53
2024-04-08T08:19:48.485Z,47.72
2024-04-08T08:22:19.164Z,47.94
2024-04-08T08:24:47.440Z,47.00
2024-04-08T08:27:20.018Z,45.97
2024-04-08T08:34:16.534Z,45.08
2024-04-08T08:36:47.024Z,45.72
2024-04-08T08:39:16.384Z,45.84
2024-04-08T08:41:44.522Z,43.80
2024-04-08T08:44:14.979Z,41.33
2024-04-08T08:46:44.032Z,40.69
2024-04-08T08:49:12.016Z,41.18
2024-04-08T08:51:40.863Z,40.68
2024-04-08T08:54:09.079Z,40.14
2024-04-08T08:56:37.079Z,40.77
2024-04-08T08:59:05.274Z,40.47
2024-04-08T09:01:33.223Z,39.82
2024-04-08T09:04:07.736Z,39.13
2024-04-08T09:06:37.990Z,39.53
2024-04-08T09:09:06.525Z,39.98
2024-04-08T09:11:35.007Z,39.21
2024-04-08T09:14:07.166Z,39.80
2024-04-08T09:16:35.120Z,39.98
2024-04-08T09:19:03.992Z,39.67
2024-04-08T09:21:32.089Z,39.72
2024-04-08T09:24:09.180Z,39.67
2024-04-08T09:26:37.454Z,39.26
2024-04-08T09:29:05.493Z,38.70
2024-04-08T09:31:33.474Z,38.40
2024-04-08T09:34:01.598Z,38.05
2024-04-08T09:36:29.784Z,38.83
2024-04-08T09:38:57.802Z,39.29
2024-04-08T09:41:25.870Z,38.70
2024-04-08T09:43:53.808Z,38.97
2024-04-08T09:46:21.759Z,39.36
2024-04-08T09:48:53.523Z,38.69
2024-04-08T09:51:21.721Z,37.87
2024-04-08T09:53:49.725Z,37.54
2024-04-08T09:56:20.694Z,36.81
2024-04-08T09:59:06.609Z,36.48
2024-04-08T10:01:34.640Z,36.14
2024-04-08T10:04:03.535Z,35.36
2024-04-08T10:06:31.566Z,34.53
2024-04-08T10:08:59.821Z,34.88
2024-04-08T10:11:27.972Z,35.19
2024-04-08T10:13:56.093Z,34.62
2024-04-08T10:16:24.184Z,33.69
2024-04-08T10:18:58.100Z,34.19
2024-04-08T10:21:29.448Z,33.84
2024-04-08T10:23:59.448Z,32.45
2024-04-08T10:26:27.937Z,31.77
2024-04-08T10:28:56.012Z,32.41
2024-04-08T10:31:28.906Z,32.07
2024-04-08T10:33:57.532Z,32.15
2024-04-08T10:36:25.528Z,32.67
2024-04-08T10:38:53.623Z,32.29
2024-04-08T10:41:21.584Z,31.32
2024-04-08T10:43:49.647Z,31.26
2024-04-08T10:46:19.951Z,31.15
2024-04-08T10:48:47.968Z,30.62
2024-04-08T10:51:17.753Z,30.97
2024-04-08T10:53:45.918Z,30.90
2024-04-08T10:56:13.969Z,30.75
2024-04-08T10:58:42.038Z,30.56
2024-04-08T11:01:10.182Z,28.83
2024-04-08T11:03:38.717Z,28.70
2024-04-08T11:06:07.102Z,28.93
2024-04-08T11:08:35.458Z,28.98
2024-04-08T11:11:05.171Z,28.75
2024-04-08T11:13:33.193Z,28.36
2024-04-08T11:16:01.180Z,28.10
2024-04-08T11:18:29.253Z,28.48
2024-04-08T11:20:57.380Z,27.87
2024-04-08T11:23:25.595Z,27.56
2024-04-08T11:25:54.355Z,27.88
2024-04-08T11:28:26.763Z,28.36
2024-04-08T11:30:54.733Z,27.67
2024-04-08T11:33:22.844Z,27.62
2024-04-08T11:35:51.251Z,28.27
2024-04-08T11:38:30.187Z,28.13
2024-04-08T11:41:07.679Z,26.82
2024-04-08T11:43:36.690Z,26.64
2024-04-08T11:46:05.633Z,25.85
2024-04-08T11:48:36.366Z,25.06
2024-04-08T11:51:05.263Z,24.90
2024-04-08T11:53:33.583Z,24.14
2024-04-08T11:56:02.197Z,23.87
2024-04-08T11:58:30.389Z,23.08
2024-04-08T12:00:58.768Z,23.41
2024-04-08T12:03:27.044Z,22.63
2024-04-08T12:05:55.152Z,22.47
2024-04-08T12:08:23.794Z,21.88
2024-04-08T12:10:51.801Z,20.94
2024-04-08T12:13:20.431Z,21.30
2024-04-08T12:15:48.636Z,21.30
2024-04-08T12:18:16.677Z,20.42
2024-04-08T12:20:44.730Z,20.63
2024-04-08T12:23:13.013Z,20.13
2024-04-08T12:25:41.129Z,19.36
2024-04-08T12:28:12.610Z,19.07
2024-04-08T12:30:46.248Z,19.13
2024-04-08T12:33:14.985Z,19.76
2024-04-08T12:35:43.434Z,20.30
2024-04-08T12:38:11.641Z,20.36
2024-04-08T12:40:39.621Z,20.61
2024-04-08T12:43:07.822Z,20.09
2024-04-08T12:45:35.896Z,19.42
2024-04-08T12:48:04.227Z,19.07
2024-04-08T12:50:33.795Z,20.34
2024-04-08T12:53:02.524Z,20.54
2024-04-08T12:55:30.589Z,20.41
2024-04-08T12:57:58.677Z,20.46
2024-04-08T13:00:26.893Z,20.40
2024-04-08T13:03:15.722Z,20.29
2024-04-08T13:05:44.216Z,20.02
2024-04-08T13:08:13.873Z,19.23
2024-04-08T13:10:41.918Z,19.32
2024-04-08T13:13:09.925Z,19.12
2024-04-08T13:15:38.179Z,18.96
2024-04-08T13:18:07.406Z,18.36
2024-04-08T13:20:35.407Z,18.32
2024-04-08T13:23:04.098Z,17.97
2024-04-08T13:25:34.807Z,18.06
2024-04-08T13:28:05.091Z,18.17
2024-04-08T13:30:33.161Z,17.90
2024-04-08T13:33:01.291Z,18.08
2024-04-08T13:35:29.391Z,17.77
2024-04-08T13:37:57.461Z,17.70
2024-04-08T13:40:26.481Z,16.99
2024-04-08T13:42:54.469Z,16.82
2024-04-08T13:45:22.477Z,16.89
2024-04-08T13:47:50.544Z,16.68
2024-04-08T13:50:18.579Z,16.73
2024-04-08T13:52:48.683Z,17.14
2024-04-08T13:55:16.725Z,16.47
2024-04-08T13:57:44.738Z,16.64
2024-04-08T14:00:13.334Z,16.35
2024-04-08T14:02:41.445Z,15.74
2024-04-08T14:05:09.819Z,15.86
2024-04-08T14:07:37.757Z,16.31
2024-04-08T14:10:06.089Z,16.50
2024-04-08T14:12:34.131Z,16.56
2024-04-08T14:15:02.308Z,17.26
2024-04-08T14:17:30.310Z,17.00
2024-04-08T14:19:58.242Z,17.17
2024-04-08T14:22:26.331Z,17.68
2024-04-08T14:24:54.385Z,17.35
2024-04-08T14:27:22.396Z,18.07
2024-04-08T14:29:55.811Z,19.32
2024-04-08T14:32:28.130Z,19.86
2024-04-08T14:34:56.642Z,19.62
2024-04-08T14:37:43.269Z,19.77
2024-04-08T14:40:12.939Z,21.02
2024-04-08T14:42:41.020Z,20.76
2024-04-08T14:45:09.072Z,21.02
2024-04-08T14:47:37.169Z,21.88
2024-04-08T14:50:05.516Z,22.31
2024-04-08T14:52:39.839Z,22.03
2024-04-08T14:55:11.818Z,23.04
2024-04-08T14:57:44.669Z,23.08
2024-04-08T15:00:13.091Z,22.73
2024-04-08T15:02:43.056Z,24.07
2024-04-08T15:05:11.752Z,23.83
2024-04-08T15:07:39.705Z,23.54
2024-04-08T15:10:08.181Z,23.82
2024-04-08T15:12:36.285Z,23.70
2024-04-08T15:15:06.730Z,23.28
2024-04-08T15:17:35.174Z,24.36
2024-04-08T15:20:03.222Z,25.82
2024-04-08T15:22:31.572Z,26.03
2024-04-08T15:25:00.009Z,25.87
2024-04-08T15:27:28.362Z,26.86
2024-04-08T15:29:58.816Z,26.83
2024-04-08T15:32:27.052Z,27.35
2024-04-08T15:34:55.189Z,27.33
2024-04-08T15:37:23.134Z,28.17
2024-04-08T15:39:51.564Z,29.18
2024-04-08T15:42:19.635Z,28.62
2024-04-08T15:44:47.846Z,29.22
2024-04-08T15:47:15.783Z,29.06
2024-04-08T15:49:43.746Z,29.11
2024-04-08T15:52:11.702Z,29.26
2024-04-08T15:54:39.738Z,29.12
2024-04-08T15:57:09.843Z,29.24
2024-04-08T15:59:37.941Z,29.52
2024-04-08T16:02:05.887Z,29.74
2024-04-08T16:04:34.159Z,29.83
2024-04-08T16:07:02.348Z,29.94
2024-04-08T16:09:31.851Z,30.57
2024-04-08T16:12:00.154Z,31.77
2024-04-08T16:14:28.236Z,32.16
2024-04-08T16:16:56.386Z,31.45
2024-04-08T16:19:24.344Z,32.00
2024-04-08T16:21:52.308Z,31.92
2024-04-08T16:24:20.217Z,32.50
2024-04-08T16:26:48.241Z,32.98
2024-04-08T16:29:16.210Z,33.46
2024-04-08T16:31:44.129Z,33.43
2024-04-08T16:34:13.877Z,34.48
2024-04-08T16:36:41.945Z,33.92
2024-04-08T16:39:10.571Z,34.43
2024-04-08T16:41:38.591Z,34.75
2024-04-08T16:44:08.095Z,34.90
2024-04-08T16:46:36.383Z,35.92
2024-04-08T16:49:04.358Z,35.96
2024-04-08T16:51:33.131Z,36.04
2024-04-08T16:54:01.247Z,36.16
2024-04-08T16:56:31.756Z,36.13
2024-04-08T16:58:59.731Z,36.81
2024-04-08T17:01:27.712Z,36.74
2024-04-08T17:03:55.822Z,36.73
2024-04-08T17:06:24.183Z,36.81
2024-04-08T17:08:52.612Z,36.50
2024-04-08T17:11:21.056Z,37.80
2024-04-08T17:13:49.320Z,36.96
2024-04-08T17:16:17.243Z,36.74
2024-04-08T17:18:45.515Z,36.94
2024-04-08T17:21:13.634Z,36.70
2024-04-08T17:23:42.818Z,36.74
2024-04-08T17:26:10.852Z,36.82
2024-04-08T17:28:39.922Z,36.90
2024-04-08T17:31:08.629Z,37.48
2024-04-08T17:33:36.881Z,37.63
2024-04-08T17:36:06.152Z,37.46
2024-04-08T17:38:40.806Z,37.76
2024-04-08T17:41:09.639Z,37.96
2024-04-08T17:43:42.011Z,38.22
2024-04-08T17:46:10.202Z,38.63
2024-04-08T17:48:39.248Z,38.44
2024-04-08T17:51:08.438Z,39.01
2024-04-08T17:53:37.211Z,38.75
2024-04-08T17:56:06.470Z,39.05
2024-04-08T17:58:35.222Z,39.38
2024-04-08T18:01:12.830Z,39.71
2024-04-08T18:03:41.508Z,39.28
2024-04-08T18:06:10.870Z,40.32
2024-04-08T18:08:42.374Z,40.42
2024-04-08T18:11:12.889Z,40.49
2024-04-08T18:13:41.367Z,40.28
2024-04-08T18:16:17.215Z,40.54
2024-04-08T18:18:47.176Z,40.48
2024-04-08T18:21:15.740Z,40.47
2024-04-08T18:23:44.413Z,41.16
2024-04-08T18:26:15.442Z,42.88
2024-04-08T18:28:44.467Z,43.30
2024-04-08T18:31:13.236Z,43.52
2024-04-08T18:33:41.927Z,43.17
2024-04-08T18:36:10.199Z,42.95
2024-04-08T18:38:38.213Z,44.02
2024-04-08T18:41:07.504Z,44.39
2024-04-08T18:43:36.717Z,44.07
2024-04-08T18:46:09.548Z,44.82
2024-04-08T18:48:38.182Z,45.27
2024-04-08T18:51:07.288Z,45.30
2024-04-08T18:53:35.213Z,45.46
2024-04-08T18:56:03.949Z,46.18
2024-04-08T18:58:31.972Z,46.86
2024-04-08T19:01:06.636Z,46.68
2024-04-08T19:03:38.159Z,47.18
2024-04-08T19:06:06.870Z,46.82
2024-04-08T19:08:34.923Z,46.74
2024-04-08T19:11:03.210Z,46.29
2024-04-08T19:13:31.186Z,47.23
2024-04-08T19:16:05.361Z,46.90
2024-04-08T19:18:36.460Z,47.75
2024-04-08T19:21:07.793Z,47.86
2024-04-08T19:23:35.982Z,48.85
2024-04-08T19:26:04.530Z,49.37
2024-04-08T19:28:33.545Z,48.70
2024-04-08T19:31:02.736Z,49.50
2024-04-08T19:33:30.764Z,50.03
2024-04-08T19:35:59.716Z,49.01
2024-04-08T19:38:28.192Z,49.55
2024-04-08T19:41:03.487Z,49.06
2024-04-08T19:43:32.072Z,49.82
2024-04-08T19:46:14.669Z,50.48
2024-04-08T19:48:44.676Z,50.46
2024-04-08T19:51:19.982Z,49.99
2024-04-08T19:53:51.847Z,49.37
2024-04-08T19:56:21.737Z,50.19
2024-04-08T19:58:50.148Z,51.18
2024-04-08T20:01:18.181Z,50.64
2024-04-08T20:03:46.619Z,50.55
2024-04-08T20:06:15.143Z,50.46
2024-04-08T20:08:43.394Z,50.28
2024-04-08T20:11:11.653Z,50.72
2024-04-08T20:13:40.259Z,50.75
2024-04-08T20:16:15.999Z,50.89
2024-04-08T20:18:44.466Z,50.78
2024-04-08T20:21:13.174Z,50.58
2024-04-08T20:23:41.417Z,50.18
2024-04-08T20:26:09.826Z,50.40
2024-04-08T20:28:37.819Z,51.12
2024-04-08T20:31:06.660Z,50.50
2024-04-08T20:33:35.211Z,51.31
2024-04-08T20:36:03.283Z,50.95
2024-04-08T20:38:32.086Z,51.01
2024-04-08T20:41:07.025Z,50.97
2024-04-08T20:43:36.030Z,50.72
2024-04-08T20:46:04.401Z,51.78
2024-04-08T20:48:32.740Z,51.47
2024-04-08T20:51:02.085Z,51.29
2024-04-08T20:53:30.560Z,51.24
2024-04-08T20:56:06.617Z,51.26
2024-04-08T20:58:34.707Z,50.71
2024-04-08T21:01:09.008Z,51.12
2024-04-08T21:03:38.035Z,52.00
2024-04-08T21:06:08.252Z,52.48
2024-04-08T21:08:43.606Z,52.02
2024-04-08T21:11:12.965Z,51.67
2024-04-08T21:13:41.458Z,51.66
2024-04-08T21:16:09.585Z,51.49
2024-04-08T21:18:38.124Z,51.79
2024-04-08T21:21:07.154Z,51.82
2024-04-08T21:23:35.748Z,51.92
2024-04-08T21:26:10.081Z,52.00
2024-04-08T21:28:38.516Z,51.61
2024-04-08T21:31:07.299Z,51.53
2024-04-08T21:33:35.504Z,51.60
2024-04-08T21:36:04.242Z,51.75
2024-04-08T21:38:32.270Z,51.71
2024-04-08T21:41:01.702Z,51.89
2024-04-08T21:43:29.739Z,51.86
2024-04-08T21:45:59.527Z,51.69
2024-04-08T21:48:27.658Z,51.94
2024-04-08T21:50:56.441Z,51.65
2024-04-08T21:53:27.943Z,51.69
2024-04-08T21:55:57.481Z,51.80
2024-04-08T21:58:25.730Z,51.57
2024-04-08T22:00:56.274Z,51.33
2024-04-08T22:03:27.758Z,51.38
2024-04-08T22:05:56.048Z,51.16
2024-04-08T22:08:24.410Z,50.83
2024-04-08T22:10:52.567Z,50.56
2024-04-08T22:13:20.576Z,51.13
2024-04-08T22:15:48.572Z,51.28
2024-04-08T22:18:18.062Z,50.93
2024-04-08T22:20:47.629Z,50.77
2024-04-08T22:23:15.699Z,50.86
2024-04-08T22:25:43.652Z,50.70
2024-04-08T22:28:11.617Z,50.63
2024-04-08T22:30:40.968Z,50.58
2024-04-08T22:33:09.255Z,50.20
2024-04-08T22:35:37.571Z,50.31
2024-04-08T22:38:05.552Z,50.31
2024-04-08T22:40:33.585Z,50.95
2024-04-08T22:43:01.558Z,50.61
2024-04-08T22:45:29.588Z,50.47
2024-04-08T22:47:57.736Z,50.56
2024-04-08T22:50:25.797Z,50.63
2024-04-08T22:52:53.803Z,50.35
2024-04-08T22:55:21.916Z,50.36
2024-04-08T22:57:49.901Z,50.21
2024-04-08T23:00:17.936Z,50.09
2024-04-08T23:02:47.315Z,50.29
2024-04-08T23:05:15.889Z,50.04
2024-04-08T23:07:43.890Z,49.95
2024-04-08T23:10:12.221Z,49.62
2024-04-08T23:12:42.863Z,50.25
2024-04-08T23:15:10.930Z,50.74
2024-04-08T23:17:39.119Z,50.80
2024-04-08T23:20:07.979Z,50.34
2024-04-08T23:22:35.937Z,50.54
2024-04-08T23:25:04.316Z,50.47
2024-04-08T23:27:32.426Z,50.69
2024-04-08T23:30:00.477Z,50.80
2024-04-08T23:32:28.589Z,50.64
2024-04-08T23:34:57.190Z,50.89
2024-04-08T23:37:25.314Z,50.30
2024-04-08T23:39:53.277Z,50.83
2024-04-08T23:42:21.273Z,51.28
2024-04-08T23:44:49.582Z,51.17
2024-04-08T23:47:17.601Z,51.39
2024-04-08T23:49:45.623Z,51.47
2024-04-08T23:52:13.591Z,51.46
2024-04-08T23:54:41.616Z,52.57
2024-04-08T23:57:09.672Z,52.13
2024-04-08T23:59:37.995Z,51.49
